WXBOT messages


fromtotime message
WXBOT KF0AIT-9 05/07 01:01:51z Send another Frost Low 30
WXBOT KF0AIT-9 05/07 01:01:46z Send another Brookings SD. Hazardous Weather Outlook, Tonight,Partly Cloudy then
KF0AIT-9 WXBOT 05/07 01:01:42z Reply rejĘ
WXBOT KF0AIT-9 05/07 01:01:33z Send another 31
WXBOT KF0AIT-9 05/07 01:01:28z Send another Brookings SD. Frost Advisory, Tonight,Mostly Cloudy then Frost Low
KF0AIT-9 WXBOT 05/07 01:01:22z Reply 57006{008
KF0AIT-9 WXBOT 05/07 00:58:43z Reply 57006{007
WXBOT KO4FAX-7 05/07 00:52:37z Send another nd:na@,
WXBOT KO4FAX-7 05/07 00:52:32z Send another Currently at Rock Hill, Rock Hill - York County Airport, Temp:NA wi
KO4FAX-7 WXBOT 05/07 00:52:25z Reply current 29732{05
WXBOT KO4FAX-5 05/07 00:52:11z Send another Please send a position beacon so WxBOT can get your location
KO4FAX-5 WXBOT 05/07 00:52:04z Reply Currently{36B2B
WXBOT KO4FAX-7 05/07 00:46:18z Send another Unable to find location for KO4FAX-7
KO4FAX-7 WXBOT 05/07 00:46:11z Reply currently{04
KO4FAX-7 WXBOT 05/07 00:43:56z Reply current{02
WXBOT K4VBX 05/07 00:36:09z Send another d:220@7,overcast
WXBOT K4VBX 05/07 00:36:05z Send another Currently at Virginia Beach, Oceana, Naval Air Station, Temp:77 win
K4VBX WXBOT 05/07 00:36:00z Reply knto now
WXBOT KJ5HDA-10 05/07 00:16:33z Send another Burrton KS. Hazardous Weather Outlook, Tonight,Partly Cloudy Low 36
KJ5HDA-10 WXBOT 05/07 00:16:23z Reply listening 68{03
WXBOT KK4DUK 05/06 23:31:46z Send another East Brunswick NJ. Tonight,Chance Showers 50% Low 50
KK4DUK WXBOT 05/06 23:31:39z Reply piscataway, nj{C0007
WXBOT WC5T-2 05/06 23:28:52z Send another ow 49
WXBOT WC5T-2 05/06 23:28:47z Send another 3 Miles SE Bono AR. Tonight,Chance Showers then Mostly Cloudy 30% L
WC5T-2 WXBOT 05/06 23:28:38z Reply Tonight{5
WXBOT KJ5OSZ-7 05/06 23:28:21z Send another indy then Clear Low 33
WXBOT KJ5OSZ-7 05/06 23:28:16z Send another 3 Miles E Farmington NM. Freeze Warning, Tonight,Mostly Clear and W
KJ5OSZ-7 WXBOT 05/06 23:28:07z Reply tonight{36
WXBOT KI4QFL-10 05/06 23:12:43z Send another Florence KY. Tonight,Decreasing Clouds Low 43
KI4QFL-10 WXBOT 05/06 23:12:36z Reply 41042{9
WXBOT W4VIG-6 05/06 22:50:43z Send another k, Tonight,Showers 80% Low 53
WXBOT W4VIG-6 05/06 22:50:38z Send another Washington DC, Reagan National Airport VA. Hazardous Weather Outloo
W4VIG-6 WXBOT 05/06 22:50:31z Reply 20024{51022
W4VIG-6 WXBOT 05/06 22:38:31z Reply 22655{3C85A
WXBOT WA1GOV-1 05/06 22:30:12z Send another East Taunton MA. Tonight,Showers Likely and Patchy Fog 70% Low 50
NH7AQ-5 wxbot 05/06 22:24:27z Reply nh7aq-5{1
WXBOT W4VIG-6 05/06 22:24:20z Send another Ashburn VA. Tonight,Showers Likely 60% Low 51
W4VIG-6 WXBOT 05/06 22:24:13z Reply 20147{348FF
WXBOT W4VIG-6 05/06 22:23:46z Send another Dale City VA. Hazardous Weather Outlook, Tonight,Showers 80% Low 52
W4VIG-6 WXBOT 05/06 22:23:39z Reply 22193{9AA94
WXBOT W4VIG-6 05/06 22:15:06z Send another 2 Miles ESE Stephens City VA. Tonight,Chance Showers 40% Low 50
W4VIG-6 WXBOT 05/06 22:14:59z Reply 22655{21244
WXBOT KF5THB-4 05/06 22:05:27z Send another ound 54. North wind 5 to 10 mph.
WXBOT KF5THB-4 05/06 22:05:22z Send another 3 Miles SSE Westover Hills TX. Tonight,Mostly cloudy, with a low ar
KF5THB-4 WXBOT 05/06 22:05:13z Reply Full {230
WXBOT KD2QQM-8 05/06 21:26:57z Send another Unable to find location for KD2QQM-8
WXBOT KD2QQM-8 05/06 21:26:52z Send another Low 64
WXBOT KD2QQM-8 05/06 21:26:47z Send another Kill Devil Hills NC. Tonight,Mostly Cloudy then Chance Showers 30%
KD2QQM-8 WXBOT 05/06 21:26:40z Reply 27948{577
WXBOT KC9BHQ-7 05/06 21:24:11z Send another 2 Miles N Marshall IL. Tonight,Mostly Clear Low 39
KC9BHQ-7 WXBOT 05/06 21:24:04z Reply 62441{65
WXBOT KC1RAY-1 05/06 21:13:42z Send another Rehoboth MA. This Afternoon,Chance Showers 50% High 67
KC1RAY-1 WXBOT 05/06 21:13:35z Reply Rehoboth,MA{002
WXBOT K7TEJ-9 05/06 21:11:28z Send another FW7674 82,wind:4@2 g2,1014.6mbar,rh:20%,rain:none
WXBOT K7TEJ-9 05/06 21:10:44z Send another FW7674 82,wind:calm,1014.7mbar,rh:20%,rain:none
K7TEJ-9 WXBOT 05/06 21:10:36z Reply CWOP {38
WXBOT K7TEJ-9 05/06 20:52:13z Send another FW7674 82,wind:264@11 g15,1014.8mbar,rh:21%,rain:none
WXBOT K7TEJ-9 05/06 20:49:10z Send another FW7674 80,wind:304@2 g2,1014.8mbar,rh:21%,rain:none
K7TEJ-9 WXBOT 05/06 20:49:02z Reply CWOP {37
WXBOT KJ0TEN-2 05/06 20:45:25z Send another High 79
WXBOT KJ0TEN-2 05/06 20:45:20z Send another 4 Miles ESE Pineville NC. This Afternoon,Slight Chance T-storms 20%
KJ0TEN-2 WXBOT 05/06 20:45:12z Reply 28277{2
KE8GIM-1 WXBOT 05/06 20:44:18z Reply Now{74
WXBOT N4RFT 05/06 20:38:05z Send another gh 71
WXBOT N4RFT 05/06 20:38:00z Send another Karns TN. Hazardous Weather Outlook, This Afternoon,Showers 100% Hi
N4RFT WXBOT 05/06 20:37:53z Reply 37931{7822
WXBOT K4PFE 05/06 20:36:30z Send another ind:200@16,overcast
WXBOT K4PFE 05/06 20:36:25z Send another Currently at Washington/Dulles International Airport, DC, Temp:69 w
K4PFE WXBOT 05/06 20:36:18z Reply Chantilly, VA now{1852
WXBOT KD5FMU-14 05/06 20:31:14z Send another Henryetta OK. This Afternoon,Slight Chance Showers 20% High 64
KD5FMU-14 WXBOT 05/06 20:31:06z Reply KD5FMU{01}
WXBOT KF0QIL-9 05/06 20:21:10z Send another reasing Clouds Low 39
WXBOT KF0QIL-9 05/06 20:21:05z Send another 4 Miles N New Bloomfield MO. Hazardous Weather Outlook, Tonight,Inc
WXBOT KE8GIM-1 05/06 20:18:35z Send another mostly cloudy
WXBOT KE8GIM-1 05/06 20:18:30z Send another Currently at South Bend International Airport, Temp:55 wind:300@14,
KE8GIM-1 WXBOT 05/06 20:18:21z Reply Now{73
WXBOT KF0QIL-9 05/06 20:17:00z Send another ouds Low 39
WXBOT KF0QIL-9 05/06 20:16:55z Send another New Bloomfield MO. Hazardous Weather Outlook, Tonight,Increasing Cl
KF0QIL-9 WXBOT 05/06 20:16:46z Reply Today{CAB32
WXBOT N1QQA-7 05/06 19:53:05z Send another 2 Miles SE Sanbornville NH. This Afternoon,Rain 80% High 68
N1QQA-7 WXBOT 05/06 19:52:56z Reply where{22
WXBOT KE8GIM-1 05/06 19:46:14z Send another Currently at South Bend International Airport, Temp:54 wind:290@10,
KE8GIM-1 WXBOT 05/06 19:46:05z Reply Now{72
WXBOT K7TEJ-9 05/06 19:45:31z Send another FW7674 79,wind:300@11 g15,1015.6mbar,rh:22%,rain:none
WXBOT K7TEJ-9 05/06 19:41:24z Send another FW7674 80,wind:233@4 g4,1015.7mbar,rh:22%,rain:none
WXBOT K7TEJ-9 05/06 19:39:26z Send another FW7674 81,wind:297@6 g8,1015.6mbar,rh:21%,rain:none
M7MIV WXBOT 05/06 19:38:53z Reply weather{1306
WXBOT M7MIV 05/06 19:38:46z Send another Sorry, unable to get a forecast for location 52.0895/-0.23983
M7MIV WXBOT 05/06 19:38:39z Reply TODAY{1304
K7TEJ-9 WXBOT 05/06 19:38:14z Reply CWOP {36
N1QQA-9 WXBOT 05/06 19:38:03z Reply where{13
N1QQA-9 WXBOT 05/06 19:34:23z Reply where{12
M7MIV WXBOT 05/06 19:33:06z Reply WEATHER{1305
WXBOT WA4SKI-7 05/06 18:56:21z Send another as high as 22 mph.
WXBOT WA4SKI-7 05/06 18:56:16z Send another , with a high near 52. West northwest wind 10 to 13 mph, with gusts
WXBOT WA4SKI-7 05/06 18:56:11z Send another Oshkosh WI. Hazardous Weather Outlook, This Afternoon,Mostly cloudy
WA4SKI-7 WXBOT 05/06 18:56:04z Reply 54901 Full{m000n
WXBOT KK4DUK 05/06 18:41:31z Send another Phoenix AZ. Today,Sunny High 84
KK4DUK WXBOT 05/06 18:41:24z Reply phoenix, az{C0004
WXBOT KK4DUK 05/06 18:41:04z Send another 7 Miles NNE Memphis TN. This Afternoon,Mostly Cloudy High 62